Time;durP1;ratioP1;P1;durP2;ratioP2;P2;SDS_P1;SDS_P2;PMS_P1;PMS_P2;Temp;Humidity;BMP_temperature;BMP_pressure;BME280_temperature;BME280_humidity;BME280_pressure;Samples;Min_cycle;Max_cycle;Signal;HPM_P1;HPM_P2
2023/09/14 00:00:59;;;;;;;3.17;2.30;;;;;;;20.99;65.04;100316.25;4961931;28;20121;-90
2023/09/14 00:03:27;;;;;;;5.97;2.60;;;;;;;20.87;64.71;100308.84;4941612;28;20051;-89
2023/09/14 00:05:54;;;;;;;3.00;2.47;;;;;;;20.89;64.82;100307.63;4924891;28;20525;-90
2023/09/14 00:08:21;;;;;;;3.83;2.50;;;;;;;20.94;64.81;100312.44;4912880;28;20050;-90
2023/09/14 00:10:54;;;;;;;3.15;2.50;;;;;;;20.96;64.47;100304.97;4958072;28;20046;-89
2023/09/14 00:13:22;;;;;;;3.45;2.15;;;;;;;21.04;65.21;100307.59;4913858;28;20075;-90
2023/09/14 00:15:49;;;;;;;4.13;2.40;;;;;;;21.08;64.99;100305.31;4947333;28;20046;-87
2023/09/14 00:18:16;;;;;;;3.63;2.42;;;;;;;21.07;65.02;100307.19;4955993;28;20098;-90
2023/09/14 00:20:43;;;;;;;3.75;2.10;;;;;;;21.07;64.81;100317.16;4926517;28;20761;-90
2023/09/14 00:23:10;;;;;;;2.58;2.20;;;;;;;21.09;64.84;100312.38;4908685;28;20039;-90
2023/09/14 00:25:37;;;;;;;3.70;2.63;;;;;;;21.11;64.39;100315.72;4931900;28;20067;-90
2023/09/14 00:28:04;;;;;;;2.63;2.20;;;;;;;21.13;64.11;100321.78;4943901;28;20456;-89
2023/09/14 00:30:30;;;;;;;2.50;2.30;;;;;;;21.09;63.77;100331.28;4929916;28;20061;-90
2023/09/14 00:32:57;;;;;;;4.57;2.38;;;;;;;21.03;63.39;100336.44;4948150;28;20133;-91
2023/09/14 00:35:24;;;;;;;2.45;2.13;;;;;;;20.97;63.16;100330.97;4935460;28;20612;-90
2023/09/14 00:37:51;;;;;;;2.40;2.20;;;;;;;20.93;62.68;100333.19;4926649;28;20057;-90
2023/09/14 00:40:17;;;;;;;3.35;2.10;;;;;;;20.88;62.38;100318.59;4938214;28;20047;-89
2023/09/14 00:42:50;;;;;;;3.70;2.25;;;;;;;20.90;62.37;100330.88;4935868;28;20054;-89
2023/09/14 00:45:19;;;;;;;;;;;;;;;20.66;62.27;100328.53;4925545;28;20138;-89
2023/09/14 00:47:48;;;;;;;2.05;1.92;;;;;;;20.78;62.27;100337.81;4957601;28;19993;-90
2023/09/14 00:50:17;;;;;;;2.88;2.30;;;;;;;20.80;62.53;100339.28;4944182;28;20042;-89
2023/09/14 00:52:45;;;;;;;2.35;1.90;;;;;;;20.77;62.34;100338.84;4944181;28;20121;-90
2023/09/14 00:55:17;;;;;;;2.40;2.20;;;;;;;20.76;62.34;100334.44;4933275;28;20149;-90
2023/09/14 00:57:46;;;;;;;2.70;2.10;;;;;;;20.80;62.86;100338.47;4909589;28;20050;-90
2023/09/14 01:00:13;;;;;;;3.92;2.17;;;;;;;20.79;62.37;100332.22;4919722;28;21030;-89
2023/09/14 01:02:40;;;;;;;3.80;2.20;;;;;;;20.78;62.89;100327.84;4928021;28;20094;-90
2023/09/14 01:05:08;;;;;;;3.92;2.40;;;;;;;20.80;62.50;100327.66;4944829;28;21245;-88
2023/09/14 01:07:35;;;;;;;3.10;2.08;;;;;;;20.80;62.71;100336.59;4942671;28;20042;-90
2023/09/14 01:10:01;;;;;;;4.60;2.17;;;;;;;20.83;63.23;100332.69;4954304;28;20122;-90
2023/09/14 01:12:28;;;;;;;2.63;1.88;;;;;;;20.83;63.74;100326.44;4940808;28;21027;-87
2023/09/14 01:15:19;;;;;;;4.30;2.20;;;;;;;20.74;64.01;100318.47;4960332;28;20051;-90
2023/09/14 01:18:16;;;;;;;2.55;2.10;;;;;;;20.73;64.94;100321.34;4942471;28;20102;-89
2023/09/14 01:21:11;;;;;;;3.30;2.40;;;;;;;20.70;65.27;100322.56;4941754;28;20091;-90
2023/09/14 01:23:46;;;;;;;3.10;2.15;;;;;;;20.73;64.99;100332.13;4945658;28;20067;-90
2023/09/14 01:26:15;;;;;;;2.53;2.22;;;;;;;20.72;65.23;100325.91;4942017;28;20642;-90
2023/09/14 01:28:42;;;;;;;4.57;1.90;;;;;;;20.67;65.51;100327.53;4957597;28;20463;-90
2023/09/14 01:31:09;;;;;;;2.10;1.85;;;;;;;20.66;65.63;100325.81;4933349;28;20130;-90
2023/09/14 01:33:36;;;;;;;3.20;2.30;;;;;;;20.67;65.56;100327.53;4942820;28;20049;-91
2023/09/14 01:36:16;;;;;;;2.00;1.80;;;;;;;20.58;65.55;100334.88;4941056;28;20107;-90
2023/09/14 01:38:45;;;;;;;2.53;2.17;;;;;;;20.60;65.59;100339.03;4973487;28;20130;-89
2023/09/14 01:41:14;;;;;;;2.15;1.95;;;;;;;20.59;65.51;100336.56;4931022;28;20050;-87
2023/09/14 01:43:44;;;;;;;2.50;2.08;;;;;;;20.54;65.36;100341.66;4933278;28;20038;-91
2023/09/14 01:46:11;;;;;;;3.10;2.28;;;;;;;20.53;64.99;100332.72;4943542;28;20051;-91
2023/09/14 01:48:38;;;;;;;2.33;2.03;;;;;;;20.52;65.36;100346.41;4973129;28;20050;-90
2023/09/14 01:51:04;;;;;;;3.50;1.85;;;;;;;20.50;65.30;100353.84;4968786;28;20268;-90
2023/09/14 01:53:31;;;;;;;3.78;2.42;;;;;;;20.47;65.08;100349.66;4957351;28;20054;-90
2023/09/14 01:55:58;;;;;;;4.68;2.05;;;;;;;20.45;65.21;100350.84;4936009;28;20402;-91
2023/09/14 01:58:25;;;;;;;2.15;1.95;;;;;;;20.43;65.41;100356.47;4963212;28;20057;-90
2023/09/14 02:00:52;;;;;;;2.50;2.13;;;;;;;20.39;65.45;100358.69;4960365;28;20093;-90
2023/09/14 02:03:19;;;;;;;2.70;1.92;;;;;;;20.41;65.51;100360.38;4923168;28;20042;-90
2023/09/14 02:05:46;;;;;;;4.43;1.88;;;;;;;20.36;65.92;100348.28;4971192;28;20794;-90
2023/09/14 02:08:13;;;;;;;3.63;2.30;;;;;;;20.33;65.65;100347.81;4939082;28;20157;-91
2023/09/14 02:10:40;;;;;;;2.40;1.95;;;;;;;20.32;65.50;100360.44;4945416;28;20061;-90
2023/09/14 02:13:07;;;;;;;3.75;1.98;;;;;;;20.29;66.06;100349.19;4959134;28;20130;-90
2023/09/14 02:15:34;;;;;;;2.45;2.10;;;;;;;20.27;65.71;100351.25;4951966;28;20552;-91
2023/09/14 02:18:00;;;;;;;3.38;2.30;;;;;;;20.26;65.64;100350.41;4935903;28;20097;-88
2023/09/14 02:20:27;;;;;;;2.78;2.03;;;;;;;20.23;65.97;100345.41;4941588;28;20046;-90
2023/09/14 02:22:54;;;;;;;2.17;1.98;;;;;;;20.21;65.92;100349.31;4939771;28;20444;-90
2023/09/14 02:25:20;;;;;;;4.28;2.00;;;;;;;20.14;65.72;100346.50;4940070;28;20138;-90
2023/09/14 02:27:47;;;;;;;3.60;1.90;;;;;;;20.11;66.00;100350.41;4960090;28;20055;-90
2023/09/14 02:30:14;;;;;;;2.35;2.05;;;;;;;20.10;65.82;100351.44;4950057;28;20043;-89
2023/09/14 02:32:41;;;;;;;2.40;2.10;;;;;;;20.09;65.79;100346.22;4946752;28;20422;-89
2023/09/14 02:35:08;;;;;;;4.97;2.33;;;;;;;20.09;65.51;100354.31;4931732;28;20053;-89
2023/09/14 02:37:35;;;;;;;2.42;1.90;;;;;;;20.06;65.67;100347.44;4940916;28;20473;-91
2023/09/14 02:40:03;;;;;;;4.03;2.00;;;;;;;20.04;65.70;100356.72;4940420;28;20553;-88
2023/09/14 02:42:30;;;;;;;4.43;2.13;;;;;;;20.01;65.80;100359.78;4909399;28;20051;-89
2023/09/14 02:44:56;;;;;;;3.03;2.17;;;;;;;19.99;65.72;100356.44;4943570;28;20042;-90
2023/09/14 02:47:23;;;;;;;2.47;1.80;;;;;;;19.94;65.68;100359.69;4938384;28;20536;-89
2023/09/14 02:49:50;;;;;;;2.90;2.00;;;;;;;19.91;65.78;100366.28;4923561;28;20051;-90
2023/09/14 02:52:16;;;;;;;3.05;1.60;;;;;;;19.90;65.43;100364.63;4933178;28;20399;-90
2023/09/14 02:54:43;;;;;;;3.03;2.40;;;;;;;19.90;65.57;100372.69;4957052;28;20047;-89
2023/09/14 02:57:12;;;;;;;2.60;2.08;;;;;;;19.90;65.63;100366.47;4942952;28;20062;-89
2023/09/14 02:59:38;;;;;;;2.47;1.95;;;;;;;19.84;65.76;100361.81;4931580;28;20133;-90
2023/09/14 03:02:06;;;;;;;2.58;2.00;;;;;;;19.79;65.80;100367.72;4922390;28;20047;-90
2023/09/14 03:04:34;;;;;;;2.65;2.22;;;;;;;19.80;65.71;100365.91;4957804;28;20129;-90
2023/09/14 03:07:00;;;;;;;5.15;2.58;;;;;;;19.75;65.85;100355.66;4943228;28;20586;-89
2023/09/14 03:09:28;;;;;;;3.13;1.98;;;;;;;19.73;65.95;100361.22;4939067;28;20055;-90
2023/09/14 03:11:55;;;;;;;3.35;2.13;;;;;;;19.73;65.99;100368.47;4942942;28;20047;-88
2023/09/14 03:14:22;;;;;;;3.17;2.22;;;;;;;19.69;66.01;100365.31;4922102;28;20447;-89
2023/09/14 03:16:51;;;;;;;2.47;2.10;;;;;;;19.64;65.90;100369.53;4956884;28;20058;-90
2023/09/14 03:19:18;;;;;;;3.75;2.20;;;;;;;19.64;66.06;100370.38;4944739;28;20054;-89
2023/09/14 03:21:45;;;;;;;3.33;2.70;;;;;;;19.60;66.01;100365.53;4934997;28;20051;-91
2023/09/14 03:24:12;;;;;;;2.47;2.20;;;;;;;19.62;66.09;100375.13;4929571;28;20464;-89
2023/09/14 03:26:41;;;;;;;3.55;2.05;;;;;;;19.57;66.42;100364.03;4941656;28;20122;-92
2023/09/14 03:29:08;;;;;;;3.40;2.17;;;;;;;19.60;66.14;100373.63;4930600;28;20085;-89
2023/09/14 03:31:35;;;;;;;3.03;2.08;;;;;;;19.58;66.22;100367.56;4943998;28;20050;-89
2023/09/14 03:34:04;;;;;;;5.47;2.20;;;;;;;19.54;66.17;100380.56;4927433;28;20051;-90
2023/09/14 03:36:32;;;;;;;2.10;1.88;;;;;;;19.53;66.58;100373.50;4940895;28;20050;-90
2023/09/14 03:38:59;;;;;;;2.40;2.20;;;;;;;19.49;66.33;100383.81;4942950;28;20565;-90
2023/09/14 03:41:31;;;;;;;3.38;2.00;;;;;;;19.46;66.25;100375.22;4937118;28;20106;-89
2023/09/14 03:43:59;;;;;;;3.30;2.10;;;;;;;19.49;66.22;100385.66;4957770;28;20051;-89
2023/09/14 03:46:26;;;;;;;2.38;1.70;;;;;;;19.46;66.51;100386.88;4927270;28;20708;-89
2023/09/14 03:48:55;;;;;;;3.67;2.17;;;;;;;19.45;66.47;100385.16;4942173;28;20503;-89
2023/09/14 03:51:23;;;;;;;4.80;2.50;;;;;;;19.44;66.13;100390.75;4921963;28;20052;-89
2023/09/14 03:53:50;;;;;;;3.00;2.20;;;;;;;19.40;66.39;100382.19;4911129;28;20137;-90
2023/09/14 03:56:17;;;;;;;2.33;2.10;;;;;;;19.40;66.10;100386.75;4921997;28;20114;-91
2023/09/14 03:58:44;;;;;;;3.22;2.40;;;;;;;19.35;66.43;100392.66;4927397;28;20066;-88
2023/09/14 04:01:11;;;;;;;3.97;2.10;;;;;;;19.35;66.53;100394.50;4931596;28;20061;-89
2023/09/14 04:03:38;;;;;;;4.90;1.85;;;;;;;19.32;66.59;100392.19;4927472;28;20502;-88
2023/09/14 04:06:06;;;;;;;2.83;2.30;;;;;;;19.30;66.48;100400.44;4932594;28;20061;-91
2023/09/14 04:08:33;;;;;;;4.38;2.30;;;;;;;19.26;66.60;100394.56;4934887;28;20063;-88
2023/09/14 04:11:01;;;;;;;4.95;2.40;;;;;;;19.27;66.73;100398.94;4921763;28;22079;-89
2023/09/14 04:13:33;;;;;;;4.50;2.13;;;;;;;19.19;66.44;100408.94;4927276;28;20046;-87
2023/09/14 04:16:08;;;;;;;3.83;2.53;;;;;;;19.19;66.85;100404.38;4942054;28;20336;-88
2023/09/14 04:18:38;;;;;;;4.60;2.17;;;;;;;19.20;66.57;100410.59;4965357;28;20130;-86
2023/09/14 04:21:06;;;;;;;2.97;2.10;;;;;;;19.20;66.68;100410.59;4944683;28;20066;-90
2023/09/14 04:23:33;;;;;;;3.15;2.15;;;;;;;19.19;66.78;100422.41;4924692;28;20102;-90
2023/09/14 04:26:01;;;;;;;3.03;2.45;;;;;;;19.17;66.62;100422.56;4945270;28;20517;-84
2023/09/14 04:28:30;;;;;;;2.88;2.05;;;;;;;19.14;66.99;100425.59;4934977;28;20055;-85
2023/09/14 04:31:01;;;;;;;3.85;1.90;;;;;;;19.16;67.07;100420.91;4955252;28;20130;-84
2023/09/14 04:33:32;;;;;;;5.07;2.20;;;;;;;19.18;67.45;100429.59;4936483;28;20463;-85
2023/09/14 04:36:02;;;;;;;5.30;2.58;;;;;;;19.16;67.36;100436.19;4966194;28;20047;-83
2023/09/14 04:38:30;;;;;;;6.05;3.00;;;;;;;19.13;67.30;100429.28;4926007;28;20503;-84
2023/09/14 04:41:00;;;;;;;6.70;2.78;;;;;;;19.13;67.47;100426.59;4947197;28;20062;-84
2023/09/14 04:43:28;;;;;;;3.30;2.85;;;;;;;19.12;67.86;100426.81;4966361;28;20043;-84
2023/09/14 04:45:56;;;;;;;4.80;2.67;;;;;;;19.12;67.42;100434.88;4950712;28;22198;-84
2023/09/14 04:48:23;;;;;;;4.93;2.58;;;;;;;19.13;67.36;100441.94;4941576;28;20050;-84
2023/09/14 04:50:51;;;;;;;2.97;2.53;;;;;;;19.11;67.34;100433.19;4926533;28;20047;-84
2023/09/14 04:53:18;;;;;;;3.78;2.80;;;;;;;19.09;67.69;100434.22;4936279;28;20051;-84
2023/09/14 04:55:45;;;;;;;5.82;2.65;;;;;;;19.10;67.53;100443.13;4928842;28;20047;-84
2023/09/14 04:58:12;;;;;;;3.40;2.67;;;;;;;19.09;67.43;100441.44;4953534;28;20550;-84
2023/09/14 05:00:39;;;;;;;2.60;2.40;;;;;;;19.11;67.27;100439.44;4939275;28;20051;-84
2023/09/14 05:03:06;;;;;;;3.67;2.22;;;;;;;19.11;67.14;100446.63;4952421;28;20049;-85
2023/09/14 05:05:32;;;;;;;2.53;2.33;;;;;;;19.08;67.21;100442.44;4938272;28;20051;-84
2023/09/14 05:08:01;;;;;;;4.15;2.65;;;;;;;19.07;67.36;100448.84;4957135;28;20050;-84
2023/09/14 05:10:28;;;;;;;4.95;2.50;;;;;;;19.07;67.37;100444.31;4958128;28;20043;-84
2023/09/14 05:12:55;;;;;;;5.68;2.58;;;;;;;19.08;67.63;100462.16;4971141;28;20451;-84
2023/09/14 05:15:22;;;;;;;4.85;2.25;;;;;;;19.10;67.77;100459.28;4931086;28;20054;-84
2023/09/14 05:17:50;;;;;;;2.85;2.00;;;;;;;19.13;67.55;100460.78;4942250;28;20047;-84
2023/09/14 05:20:17;;;;;;;2.97;2.15;;;;;;;19.11;67.72;100460.09;4970488;28;20038;-84
2023/09/14 05:22:44;;;;;;;3.30;2.30;;;;;;;19.07;67.73;100460.47;4929664;28;20058;-84
2023/09/14 05:25:11;;;;;;;4.70;2.30;;;;;;;19.09;67.51;100463.00;4931996;28;20053;-84
2023/09/14 05:27:40;;;;;;;3.55;2.60;;;;;;;19.12;67.60;100459.09;4961281;28;20138;-84
2023/09/14 05:30:10;;;;;;;3.28;2.60;;;;;;;19.11;67.78;100460.09;4943241;28;20145;-84
2023/09/14 05:32:40;;;;;;;7.13;2.30;;;;;;;19.12;68.00;100465.31;4946858;28;20046;-84
2023/09/14 05:35:07;;;;;;;4.30;2.47;;;;;;;19.13;67.98;100466.16;4943474;28;20146;-84
2023/09/14 05:37:34;;;;;;;5.20;2.95;;;;;;;19.11;67.48;100466.34;4935270;28;20043;-84
2023/09/14 05:40:09;;;;;;;6.68;2.53;;;;;;;19.15;67.31;100466.81;4938339;28;20047;-85
2023/09/14 05:42:38;;;;;;;3.03;2.20;;;;;;;19.11;66.74;100466.34;4952630;28;20383;-84
2023/09/14 05:45:06;;;;;;;4.35;2.70;;;;;;;19.15;66.50;100466.81;4941635;28;20050;-84
2023/09/14 05:47:34;;;;;;;5.63;2.55;;;;;;;19.15;66.10;100472.22;4946805;28;20115;-84
2023/09/14 05:50:04;;;;;;;4.57;2.15;;;;;;;19.10;65.58;100464.66;4952642;28;20085;-85
2023/09/14 05:52:31;;;;;;;4.15;2.25;;;;;;;19.11;65.25;100476.25;4970617;28;20106;-84
2023/09/14 05:54:58;;;;;;;8.15;2.40;;;;;;;19.09;64.60;100471.06;4945948;28;20561;-84
2023/09/14 05:57:27;;;;;;;5.68;2.65;;;;;;;19.10;64.85;100464.66;4955396;28;20403;-84
2023/09/14 05:59:54;;;;;;;2.83;2.40;;;;;;;19.13;65.10;100475.06;4955252;28;20047;-84
2023/09/14 06:02:21;;;;;;;3.33;2.20;;;;;;;19.14;65.13;100468.69;4926469;28;20051;-84
2023/09/14 06:04:48;;;;;;;3.00;2.22;;;;;;;19.16;65.23;100474.75;4932864;28;20046;-84
2023/09/14 06:07:14;;;;;;;4.53;2.40;;;;;;;19.12;63.98;100472.56;4950301;28;20482;-84
2023/09/14 06:09:41;;;;;;;8.07;2.28;;;;;;;19.13;63.71;100476.91;4933660;28;20130;-84
2023/09/14 06:12:09;;;;;;;4.38;2.20;;;;;;;19.16;63.85;100476.56;4953507;28;20057;-84
2023/09/14 06:14:37;;;;;;;4.80;2.40;;;;;;;19.14;63.48;100482.16;4935355;28;20550;-85
2023/09/14 06:17:04;;;;;;;3.53;2.35;;;;;;;19.09;63.03;100476.44;4955948;28;20466;-84
2023/09/14 06:19:31;;;;;;;4.40;1.80;;;;;;;19.11;63.37;100479.81;4944100;28;21069;-84
2023/09/14 06:21:58;;;;;;;2.97;2.22;;;;;;;19.06;63.38;100490.25;4947837;28;20384;-84
2023/09/14 06:24:25;;;;;;;4.20;2.15;;;;;;;19.07;63.30;100482.00;4955829;28;20405;-84
2023/09/14 06:26:51;;;;;;;4.80;1.90;;;;;;;19.08;62.90;100488.22;4945494;28;20063;-84
2023/09/14 06:29:18;;;;;;;3.55;2.35;;;;;;;19.09;63.16;100481.84;4949416;28;20051;-84
2023/09/14 06:31:45;;;;;;;5.80;2.45;;;;;;;19.07;62.67;100489.25;4955979;28;20103;-84
2023/09/14 06:34:12;;;;;;;6.82;2.03;;;;;;;19.07;62.43;100494.63;4947376;28;20460;-83
2023/09/14 06:36:39;;;;;;;4.72;2.65;;;;;;;18.99;62.05;100491.97;4949182;28;20554;-84
2023/09/14 06:39:07;;;;;;;5.55;2.30;;;;;;;18.97;62.21;100494.81;4930025;28;20396;-84
2023/09/14 06:41:33;;;;;;;6.70;2.53;;;;;;;18.84;62.45;100491.84;4939695;28;20665;-84
2023/09/14 06:44:03;;;;;;;6.20;2.47;;;;;;;18.83;62.28;100500.94;4951101;28;20039;-84
2023/09/14 06:46:30;;;;;;;3.85;2.30;;;;;;;18.78;61.77;100501.47;4949409;28;20067;-84
2023/09/14 06:48:56;;;;;;;4.93;2.20;;;;;;;18.72;61.90;100501.28;4944385;28;20062;-84
2023/09/14 06:51:23;;;;;;;5.18;2.45;;;;;;;18.54;61.81;100496.94;4958096;28;20409;-84
2023/09/14 06:53:51;;;;;;;5.38;2.30;;;;;;;18.58;62.02;100500.13;4956100;28;20051;-84
2023/09/14 06:56:18;;;;;;;7.40;2.70;;;;;;;18.63;61.95;100492.41;4941749;28;20042;-84
2023/09/14 06:58:45;;;;;;;6.63;2.63;;;;;;;18.62;61.67;100493.38;4968296;28;20059;-84
2023/09/14 07:01:12;;;;;;;4.25;2.33;;;;;;;18.65;62.17;100493.91;4942915;28;20047;-84
2023/09/14 07:03:39;;;;;;;5.25;2.50;;;;;;;18.66;62.21;100492.88;4939977;28;20126;-84
2023/09/14 07:06:07;;;;;;;5.45;2.15;;;;;;;18.71;61.98;100492.38;4930721;28;20050;-84
2023/09/14 07:08:33;;;;;;;10.18;2.33;;;;;;;18.78;61.89;100496.09;4938466;28;20106;-84
2023/09/14 07:11:00;;;;;;;2.75;2.33;;;;;;;18.77;61.88;100497.06;4947943;28;20047;-84
2023/09/14 07:13:27;;;;;;;5.10;2.28;;;;;;;18.83;61.50;100490.19;4948198;28;20394;-84
2023/09/14 07:15:54;;;;;;;3.97;2.20;;;;;;;18.90;61.69;100488.44;4938749;28;20502;-84
2023/09/14 07:18:26;;;;;;;4.75;2.33;;;;;;;18.95;61.87;100496.00;4956765;28;20047;-84
2023/09/14 07:20:54;;;;;;;5.60;2.30;;;;;;;18.96;61.84;100498.53;4949960;28;20057;-84
2023/09/14 07:23:21;;;;;;;5.95;2.35;;;;;;;18.98;61.52;100499.22;4901960;28;20393;-84
2023/09/14 07:25:48;;;;;;;7.30;2.58;;;;;;;19.01;61.24;100504.25;4924047;28;20053;-84
2023/09/14 07:28:18;;;;;;;4.22;2.72;;;;;;;18.97;60.84;100491.31;4945201;28;20408;-84
2023/09/14 07:30:47;;;;;;;3.70;2.58;;;;;;;19.01;61.24;100503.41;4937924;28;20126;-84
2023/09/14 07:33:15;;;;;;;10.80;2.80;;;;;;;19.00;61.52;100502.53;4929801;28;20061;-84
2023/09/14 07:35:42;;;;;;;5.05;2.13;;;;;;;19.01;61.09;100501.53;4939410;28;20051;-84
2023/09/14 07:38:10;;;;;;;3.97;2.10;;;;;;;18.96;61.63;100506.63;4940715;28;20079;-84
2023/09/14 07:40:37;;;;;;;3.20;2.20;;;;;;;18.94;61.10;100505.13;4941550;28;20050;-84
2023/09/14 07:43:04;;;;;;;3.22;2.17;;;;;;;18.93;61.23;100506.09;4951810;28;20114;-84
2023/09/14 07:45:33;;;;;;;6.13;2.05;;;;;;;18.95;61.03;100509.47;4951914;28;20043;-84
2023/09/14 07:48:01;;;;;;;3.70;2.00;;;;;;;18.94;61.17;100515.88;4917892;28;20043;-84
2023/09/14 07:50:29;;;;;;;7.07;2.30;;;;;;;19.00;61.04;100516.00;4969401;28;20063;-84
2023/09/14 07:52:55;;;;;;;4.47;2.22;;;;;;;19.04;61.25;100511.97;4969922;28;20050;-84
2023/09/14 07:55:23;;;;;;;5.45;2.22;;;;;;;19.06;60.71;100517.19;4934270;28;20451;-84
2023/09/14 07:57:50;;;;;;;5.65;2.80;;;;;;;18.99;60.86;100517.03;4949188;28;20066;-84
2023/09/14 08:00:17;;;;;;;4.78;2.22;;;;;;;18.99;60.99;100506.25;4931389;28;20047;-84
2023/09/14 08:02:43;;;;;;;7.30;3.20;;;;;;;19.03;60.77;100515.69;4926192;28;20640;-84
2023/09/14 08:05:10;;;;;;;5.82;2.60;;;;;;;18.97;60.65;100519.03;4954917;28;20046;-84
2023/09/14 08:07:37;;;;;;;4.70;2.03;;;;;;;18.97;60.69;100523.59;4938322;28;20043;-84
2023/09/14 08:10:05;;;;;;;6.07;2.70;;;;;;;19.00;60.76;100516.00;4966280;28;20138;-84
2023/09/14 08:12:32;;;;;;;4.13;2.47;;;;;;;19.03;60.99;100506.75;4941001;28;20411;-84
2023/09/14 08:14:59;;;;;;;6.70;2.33;;;;;;;19.10;60.69;100518.50;4932551;28;20049;-84
2023/09/14 08:17:28;;;;;;;3.63;2.50;;;;;;;19.14;60.93;100517.13;4953027;28;20141;-84
2023/09/14 08:19:55;;;;;;;5.78;2.30;;;;;;;19.10;60.45;100521.19;4941747;28;20036;-84
2023/09/14 08:22:23;;;;;;;9.02;2.78;;;;;;;19.09;60.47;100517.66;4924676;28;20035;-84
2023/09/14 08:24:50;;;;;;;4.80;2.60;;;;;;;19.15;60.49;100518.81;4942962;28;20039;-84
2023/09/14 08:27:17;;;;;;;7.13;2.28;;;;;;;19.14;60.56;100519.00;4932159;28;20046;-84
2023/09/14 08:29:44;;;;;;;6.22;2.47;;;;;;;19.19;60.44;100524.69;4932011;28;20125;-84
2023/09/14 08:32:11;;;;;;;3.63;2.08;;;;;;;19.23;60.63;100520.63;4945773;28;20047;-83
2023/09/14 08:34:38;;;;;;;5.18;2.30;;;;;;;19.28;60.89;100526.31;4940805;28;20399;-84
2023/09/14 08:37:10;;;;;;;4.43;2.53;;;;;;;19.29;60.69;100523.47;4926918;28;20071;-84
2023/09/14 08:39:38;;;;;;;4.83;2.73;;;;;;;19.32;60.77;100540.28;4970267;28;20057;-84
2023/09/14 08:42:04;;;;;;;3.53;2.63;;;;;;;19.34;61.27;100532.88;4958669;28;20118;-84
2023/09/14 08:44:36;;;;;;;4.32;3.08;;;;;;;19.36;61.52;100523.63;4954186;28;20122;-84
2023/09/14 08:47:03;;;;;;;5.40;3.15;;;;;;;19.38;61.47;100529.63;4945798;28;20511;-85
2023/09/14 08:49:33;;;;;;;6.13;3.08;;;;;;;19.38;61.08;100526.13;4961736;28;20077;-85
2023/09/14 08:52:01;;;;;;;4.43;3.13;;;;;;;19.40;61.30;100526.78;4949198;28;20051;-84
2023/09/14 08:54:28;;;;;;;4.72;3.08;;;;;;;19.38;61.71;100532.34;4946127;28;20046;-85
2023/09/14 08:56:56;;;;;;;5.65;3.35;;;;;;;19.41;61.63;100520.38;4930382;28;20400;-84
2023/09/14 08:59:23;;;;;;;6.78;3.00;;;;;;;19.43;61.55;100521.03;4969191;28;20390;-84
2023/09/14 09:01:50;;;;;;;5.78;3.08;;;;;;;19.46;61.42;100524.22;4945468;28;20058;-84
2023/09/14 09:04:17;;;;;;;5.03;3.53;;;;;;;19.49;61.64;100513.09;4970085;28;20054;-84
2023/09/14 09:06:44;;;;;;;4.72;2.90;;;;;;;19.56;61.82;100515.06;4953552;28;20476;-84
2023/09/14 09:09:14;;;;;;;5.45;3.00;;;;;;;19.58;61.57;100510.34;4947391;28;20062;-84
2023/09/14 09:11:41;;;;;;;4.55;3.05;;;;;;;19.59;61.46;100503.94;4950165;28;20046;-84
2023/09/14 09:14:08;;;;;;;5.70;3.00;;;;;;;19.62;61.61;100512.50;4934565;28;20403;-84
2023/09/14 09:16:34;;;;;;;4.60;3.13;;;;;;;19.64;61.52;100506.94;4948677;28;20945;-84
2023/09/14 09:19:03;;;;;;;4.20;2.47;;;;;;;19.64;61.11;100502.41;4935773;28;20122;-84
2023/09/14 09:21:34;;;;;;;;;;;;;;;19.48;61.37;100499.78;4958125;28;20874;-85
2023/09/14 09:24:04;;;;;;;5.03;3.30;;;;;;;19.62;60.97;100507.13;4960199;28;19980;-84
2023/09/14 09:26:33;;;;;;;5.25;3.00;;;;;;;19.65;61.02;100503.25;4943901;28;20053;-85
2023/09/14 09:28:59;;;;;;;4.25;2.83;;;;;;;19.65;61.16;100501.38;4942841;28;20035;-84
2023/09/14 09:31:59;;;;;;;4.80;2.60;;;;;;;19.59;60.52;100504.78;4933518;28;20384;-85
2023/09/14 09:34:28;;;;;;;3.13;2.42;;;;;;;19.71;61.24;100503.38;4910915;28;20050;-84
2023/09/14 09:36:56;;;;;;;5.60;2.90;;;;;;;19.72;61.49;100496.97;4946826;28;20039;-85
2023/09/14 09:39:23;;;;;;;5.65;2.97;;;;;;;19.78;61.21;100503.50;4943430;28;20042;-85
2023/09/14 09:41:50;;;;;;;4.40;2.22;;;;;;;19.81;60.98;100499.63;4947028;28;20421;-84
2023/09/14 09:44:18;;;;;;;4.97;2.50;;;;;;;19.82;60.20;100501.28;4946328;28;20130;-84
2023/09/14 09:46:44;;;;;;;4.63;2.92;;;;;;;19.77;59.97;100495.59;4948785;28;20491;-85
2023/09/14 09:49:17;;;;;;;3.60;2.55;;;;;;;19.77;59.29;100493.75;4941778;28;20062;-85
2023/09/14 09:51:49;;;;;;;3.67;2.25;;;;;;;19.79;59.34;100499.78;4968102;28;20059;-85
2023/09/14 09:54:20;;;;;;;3.28;2.45;;;;;;;19.80;59.11;100498.78;4961436;28;20051;-85
2023/09/14 09:56:48;;;;;;;4.72;2.28;;;;;;;19.82;59.64;100491.38;4947179;28;20047;-85
2023/09/14 09:59:15;;;;;;;5.05;2.20;;;;;;;19.86;59.93;100489.97;4936779;28;20050;-85
2023/09/14 10:01:47;;;;;;;6.90;2.78;;;;;;;19.89;59.83;100488.75;4947318;28;22320;-85
2023/09/14 10:04:15;;;;;;;3.25;1.90;;;;;;;19.91;59.41;100487.56;4935961;28;20049;-85
2023/09/14 10:06:49;;;;;;;5.88;2.60;;;;;;;19.91;58.77;100490.25;4949609;28;20043;-85
2023/09/14 10:09:16;;;;;;;3.17;2.28;;;;;;;19.96;59.46;100484.34;4951210;28;20042;-85
2023/09/14 10:11:46;;;;;;;5.47;2.67;;;;;;;20.00;60.27;100482.09;4927579;28;20043;-85
2023/09/14 10:14:15;;;;;;;5.18;2.78;;;;;;;20.03;59.60;100488.00;4947912;28;20046;-85
2023/09/14 10:16:43;;;;;;;5.78;3.00;;;;;;;20.07;59.63;100485.75;4969650;28;20063;-85
2023/09/14 10:19:11;;;;;;;5.53;2.55;;;;;;;20.08;59.39;100485.59;4957933;28;20043;-85
2023/09/14 10:21:42;;;;;;;6.10;2.53;;;;;;;20.09;59.14;100479.16;4923428;28;20065;-85
2023/09/14 10:24:11;;;;;;;3.25;2.05;;;;;;;20.10;59.62;100477.31;4948522;28;20043;-85
2023/09/14 10:26:38;;;;;;;3.78;2.20;;;;;;;20.13;59.31;100477.78;4926448;28;20054;-85
2023/09/14 10:29:06;;;;;;;2.72;2.20;;;;;;;20.17;59.83;100473.72;4947237;28;20097;-85
2023/09/14 10:31:34;;;;;;;4.05;2.90;;;;;;;20.21;59.80;100474.19;4965385;28;20050;-85
2023/09/14 10:34:03;;;;;;;4.90;2.40;;;;;;;20.22;59.56;100470.44;4936264;28;20058;-85
2023/09/14 10:36:31;;;;;;;3.25;2.05;;;;;;;20.24;58.85;100470.28;4943143;28;20044;-85
2023/09/14 10:38:59;;;;;;;3.63;2.10;;;;;;;20.24;59.32;100465.72;4969207;28;20487;-85
2023/09/14 10:41:29;;;;;;;5.82;2.70;;;;;;;20.28;59.36;100461.66;4939402;28;20047;-86
2023/09/14 10:43:56;;;;;;;3.10;1.90;;;;;;;20.30;59.29;100461.44;4945478;28;20066;-85
2023/09/14 10:46:36;;;;;;;3.80;2.20;;;;;;;20.29;59.33;100460.59;4940292;28;20050;-85
2023/09/14 10:49:03;;;;;;;3.05;2.28;;;;;;;20.38;59.11;100454.13;4948939;28;20048;-85
2023/09/14 10:51:30;;;;;;;3.13;2.30;;;;;;;20.39;58.75;100455.78;4968727;28;20118;-86
2023/09/14 10:53:57;;;;;;;3.22;2.50;;;;;;;20.44;58.73;100451.72;4947461;28;20062;-85
2023/09/14 10:56:31;;;;;;;3.83;2.38;;;;;;;20.45;58.71;100450.66;4954536;28;20043;-85
2023/09/14 10:58:59;;;;;;;2.30;2.00;;;;;;;20.46;58.79;100450.50;4929456;28;20134;-85
2023/09/14 11:01:28;;;;;;;5.05;2.70;;;;;;;20.51;58.75;100452.66;4924134;28;20039;-85
2023/09/14 11:04:18;;;;;;;4.97;2.15;;;;;;;20.52;58.38;100448.91;4932937;28;20844;-85
2023/09/14 11:06:54;;;;;;;3.45;2.15;;;;;;;20.51;57.57;100447.25;4948447;28;20054;-85
2023/09/14 11:09:23;;;;;;;8.70;2.38;;;;;;;20.52;57.56;100447.03;4953205;28;20557;-85
2023/09/14 11:11:50;;;;;;;4.07;2.00;;;;;;;20.48;58.50;100442.19;4936850;28;20053;-86
2023/09/14 11:14:23;;;;;;;3.22;2.65;;;;;;;20.47;58.16;100440.53;4947460;28;20138;-85
2023/09/14 11:16:54;;;;;;;4.13;2.28;;;;;;;20.48;58.01;100434.97;4946627;28;20402;-85
2023/09/14 11:19:29;;;;;;;2.63;2.00;;;;;;;20.45;58.09;100432.63;4927705;28;20043;-85
2023/09/14 11:22:16;;;;;;;3.88;2.55;;;;;;;20.49;58.43;100430.41;4941960;28;20123;-85
2023/09/14 11:24:45;;;;;;;4.22;2.78;;;;;;;20.50;58.65;100430.19;4942528;28;20406;-85
2023/09/14 11:27:19;;;;;;;2.97;2.28;;;;;;;20.45;58.20;100424.53;4931333;28;20050;-85
2023/09/14 11:29:51;;;;;;;3.53;2.35;;;;;;;20.48;58.38;100418.78;4928873;28;20121;-85
2023/09/14 11:32:22;;;;;;;3.13;2.33;;;;;;;20.48;58.46;100415.22;4952946;28;20079;-85